Kezdőlap
METAR-TAF:

METAR-TAF

Repülőterek :

Koror, Babeldaob, Palau

földrajzi szélesség: 07-22N, földrajzi hosszúság: 134-32E, magasság: 54 m

Jelenlegi meteorológiai megfigyelések

A jelentés 15 perccel ezelõtt készült, 07:50 UTC
Délkeleti szél 6 kt
Hőmérséklet 28°C
Páratartalom 79%
Légköri nyomás 1005 hPa
Látótávolság: 24.1 km
Kevés felhő 900 lábon
Szórványos felhőzet 1600 lábon
Szórványos felhőzet 12000 lábon
Szakadozott felhőzet 30000 lábon

METAR: PTRO 230750Z 14006KT 15SM FEW009 SCT016 SCT120 BKN300 28/24 A2968

Idő: 17:05 (08:05 UTC)

Előrejelzés

A jelentés 2 órával és 41 perccel ezelõtt készült, 05:24 UTC
Az előrejelzés 23-én 06 óra UTC és 24-én 06 óra UTC között érvényes
Déli szél 7 kt
Látótávolság: 10 km
Kevés felhő 1600 lábon
Szórványos felhőzet 14000 lábon

TAF: PTRO 230524Z 2306/2406 18007KT P6SM FEW016 SCT140

Meteorológiai megfigyelések és előrejelzések több, mint 4000 repülőtéren (METAR és TAF jelentéseket).

A térképen piros és sárga pontok jelzik az elérhető meteorológiai állomásokat.

Mozgassa az egeret a pont fölött, hogy megjelenjen az állomás neve.

Azután kattintson az időjárási megfigyelések és előrejelzések megtekintéséhez.

A térkép megváltoztatása: kattintson a fekete keresztel jelölt zöld gombra ráközelítéshez, a vonallal jelölt zöld gombra távolításhoz, vagy a zöld nyilakra a szomszédos térképek eléréséhez.


METAR-TAF: